createdAt,value
2016-04-18T00:00:00.505Z,101130
2016-04-18T00:00:13.130Z,101130
2016-04-18T00:00:25.599Z,101133
2016-04-18T00:00:38.146Z,101127
2016-04-18T00:00:50.820Z,101133
2016-04-18T00:01:03.210Z,101124
2016-04-18T00:01:15.710Z,101136
2016-04-18T00:01:28.382Z,101130
2016-04-18T00:01:40.835Z,101136
2016-04-18T00:01:53.292Z,101123
2016-04-18T00:02:05.838Z,101139
2016-04-18T00:02:18.401Z,101136
2016-04-18T00:02:31.088Z,101127
2016-04-18T00:02:43.482Z,101130
2016-04-18T00:03:52.156Z,101127
2016-04-18T00:04:04.562Z,101123
2016-04-18T00:04:17.172Z,101123
2016-04-18T00:04:29.687Z,101123
2016-04-18T00:04:42.047Z,101136
2016-04-18T00:04:54.597Z,101123
2016-04-18T00:05:07.113Z,101123
2016-04-18T00:05:19.441Z,101127
2016-04-18T00:05:31.972Z,101114
2016-04-18T00:05:44.318Z,101108
2016-04-18T00:05:57.506Z,101120
2016-04-18T00:06:09.959Z,101117
2016-04-18T00:06:22.271Z,101120
2016-04-18T00:06:35.053Z,101133
2016-04-18T00:06:47.540Z,101136
2016-04-18T00:06:59.852Z,101127
2016-04-18T00:07:12.321Z,101123
2016-04-18T00:07:24.915Z,101114
2016-04-18T00:07:37.259Z,101117
2016-04-18T00:07:49.684Z,101127
2016-04-18T00:08:02.246Z,101126
2016-04-18T00:08:14.574Z,101126
2016-04-18T00:08:27.074Z,101133
2016-04-18T00:08:39.371Z,101126
2016-04-18T00:08:52.561Z,101117
2016-04-18T00:09:05.967Z,101133
2016-04-18T00:09:18.295Z,101126
2016-04-18T00:09:30.732Z,101130
2016-04-18T00:09:43.295Z,101114
2016-04-18T00:09:55.626Z,101126
2016-04-18T00:10:08.001Z,101123
2016-04-18T00:10:20.579Z,101130
2016-04-18T00:10:32.985Z,101114
2016-04-18T00:10:45.316Z,101120
2016-04-18T00:10:57.816Z,101129
2016-04-18T00:11:10.222Z,101114
2016-04-18T00:11:22.816Z,101108
2016-04-18T00:11:35.191Z,101111
2016-04-18T00:11:47.600Z,101114
2016-04-18T00:12:00.147Z,101126
2016-04-18T00:12:12.600Z,101111
2016-04-18T00:12:24.912Z,101114
2016-04-18T00:12:37.490Z,101120
2016-04-18T00:12:49.946Z,101108
2016-04-18T00:13:02.242Z,101126
2016-04-18T00:13:14.774Z,101114
2016-04-18T00:13:27.289Z,101114
2016-04-18T00:13:39.696Z,101114
2016-04-18T00:13:52.105Z,101120
2016-04-18T00:14:04.402Z,101129
2016-04-18T00:14:16.964Z,101108
2016-04-18T00:14:29.417Z,101126
2016-04-18T00:14:41.761Z,101126
2016-04-18T00:14:54.269Z,101117
2016-04-18T00:15:06.769Z,101126
2016-04-18T00:15:19.129Z,101133
2016-04-18T00:15:31.598Z,101136
2016-04-18T00:15:44.236Z,101133
2016-04-18T00:15:56.518Z,101139
2016-04-18T00:16:08.939Z,101136
2016-04-18T00:16:21.361Z,101145
2016-04-18T00:16:33.908Z,101132
2016-04-18T00:16:46.532Z,101132
2016-04-18T00:16:58.845Z,101139
2016-04-18T00:17:11.329Z,101142
2016-04-18T00:17:24.157Z,101129
2016-04-18T00:17:37.829Z,101139
2016-04-18T00:17:52.672Z,101142
2016-04-18T00:18:06.844Z,101139
2016-04-18T00:18:20.188Z,101142
2016-04-18T00:18:32.594Z,101139
2016-04-18T00:18:45.202Z,101132
2016-04-18T00:18:57.577Z,101132
2016-04-18T00:19:09.843Z,101126
2016-04-18T00:19:22.390Z,101129
2016-04-18T00:19:34.906Z,101139
2016-04-18T00:19:47.281Z,101129
2016-04-18T00:20:02.672Z,101129
2016-04-18T00:20:15.891Z,101145
2016-04-18T00:20:28.172Z,101132
2016-04-18T00:20:40.641Z,101129
2016-04-18T00:20:53.206Z,101135
2016-04-18T00:34:57.429Z,101154
2016-04-18T00:35:09.961Z,101141
2016-04-18T00:35:22.304Z,101154
2016-04-18T00:35:34.726Z,101148
2016-04-18T00:35:47.308Z,101160
2016-04-18T00:35:59.636Z,101148
2016-04-18T00:36:12.027Z,101154
2016-04-18T00:36:24.605Z,101154
2016-04-18T00:36:37.808Z,101145
2016-04-18T00:36:50.155Z,101154
2016-04-18T00:37:02.733Z,101148
2016-04-18T00:37:15.202Z,101151
2016-04-18T00:37:27.514Z,101148
2016-04-18T00:37:40.030Z,101151
2016-04-18T00:37:52.378Z,101154
2016-04-18T00:38:04.972Z,101160
2016-04-18T00:38:17.378Z,101160
2016-04-18T00:38:29.690Z,101165
2016-04-18T00:38:42.237Z,101154
2016-04-18T00:38:57.865Z,101154
2016-04-18T00:39:10.912Z,101160
2016-04-18T00:39:23.475Z,101160
2016-04-18T00:39:36.006Z,101160
2016-04-18T00:39:48.478Z,101168
2016-04-18T00:40:01.024Z,101157
2016-04-18T00:40:13.618Z,101163
2016-04-18T00:40:25.978Z,101175
2016-04-18T00:40:38.431Z,101171
2016-04-18T00:40:50.746Z,101160
2016-04-18T00:41:03.215Z,101163
2016-04-18T00:41:15.715Z,101163
2016-04-18T00:41:29.121Z,101178
2016-04-18T00:41:41.574Z,101174
2016-04-18T00:41:54.125Z,101168
2016-04-18T00:42:06.422Z,101174
2016-04-18T00:42:18.844Z,101171
2016-04-18T00:42:31.406Z,101178
2016-04-18T00:42:43.781Z,101178
2016-04-18T00:42:56.128Z,101178
2016-04-18T00:43:08.613Z,101171
2016-04-18T00:43:21.097Z,101178
2016-04-18T00:43:33.644Z,101184
2016-04-18T00:43:46.003Z,101171
2016-04-18T00:43:58.412Z,101187
2016-04-18T00:44:10.975Z,101190
2016-04-18T00:44:23.287Z,101190
2016-04-18T00:44:35.662Z,101181
2016-04-18T00:44:48.150Z,101193
2016-04-18T00:45:00.540Z,101190
2016-04-18T00:45:12.822Z,101190
2016-04-18T00:45:25.384Z,101187
2016-04-18T00:45:37.822Z,101190
2016-04-18T00:45:50.292Z,101196
2016-04-18T00:46:02.636Z,101190
2016-04-18T00:46:15.011Z,101193
2016-04-18T00:46:27.574Z,101190
2016-04-18T00:46:39.980Z,101174
2016-04-18T00:46:52.295Z,101190
2016-04-18T00:47:04.858Z,101190
2016-04-18T00:47:17.327Z,101190
2016-04-18T00:47:29.639Z,101190
2016-04-18T00:47:42.186Z,101190
2016-04-18T00:47:54.672Z,101202
2016-04-18T00:48:07.001Z,101196
2016-04-18T00:48:19.485Z,101187
2016-04-18T00:48:31.860Z,101187
2016-04-18T00:48:44.422Z,101187
2016-04-18T00:48:56.880Z,101202
2016-04-18T00:49:09.192Z,101187
2016-04-18T00:49:23.051Z,101196
2016-04-18T00:49:36.973Z,101184
2016-04-18T00:49:50.836Z,101196
2016-04-18T00:50:04.867Z,101184
2016-04-18T00:50:18.945Z,101190
2016-04-18T00:50:32.867Z,101190
2016-04-18T00:50:46.898Z,101187
2016-04-18T00:51:00.869Z,101177
2016-04-18T00:51:15.431Z,101193
2016-04-18T00:51:28.994Z,101187
2016-04-18T00:51:41.322Z,101190
2016-04-18T00:51:53.809Z,101187
2016-04-18T00:52:06.372Z,101202
2016-04-18T01:06:12.160Z,101202
2016-04-18T01:06:24.504Z,101186
2016-04-18T01:06:37.176Z,101190
2016-04-18T01:06:49.646Z,101180
2016-04-18T01:07:01.959Z,101190
2016-04-18T01:07:14.443Z,101186
2016-04-18T01:07:26.974Z,101186
2016-04-18T01:07:39.334Z,101193
2016-04-18T01:07:51.821Z,101196
2016-04-18T01:08:04.352Z,101174
2016-04-18T01:08:16.696Z,101186
2016-04-18T01:08:29.087Z,101196
2016-04-18T01:08:41.649Z,101186
2016-04-18T01:08:54.948Z,101190
2016-04-18T01:09:07.370Z,101186
2016-04-18T01:09:19.933Z,101180
2016-04-18T01:09:32.401Z,101186
2016-04-18T01:09:44.729Z,101186
2016-04-18T01:09:57.232Z,101177
2016-04-18T01:10:09.639Z,101180
2016-04-18T01:10:22.201Z,101177
2016-04-18T01:10:34.561Z,101183
2016-04-18T01:10:46.920Z,101177
2016-04-18T01:10:59.485Z,101186
2016-04-18T01:11:11.923Z,101174
2016-04-18T01:11:24.204Z,101177
2016-04-18T01:11:36.751Z,101180
2016-04-18T01:11:49.270Z,101174
2016-04-18T01:12:01.567Z,101174
2016-04-18T01:12:14.754Z,101186
2016-04-18T01:12:27.285Z,101186
2016-04-18T01:12:39.692Z,101186
2016-04-18T01:12:52.131Z,101174
2016-04-18T01:13:04.444Z,101189
2016-04-18T01:13:16.975Z,101183
2016-04-18T01:13:29.428Z,101186
2016-04-18T01:13:41.709Z,101186
2016-04-18T01:13:54.243Z,101180
2016-04-18T01:14:06.728Z,101174
2016-04-18T01:14:19.072Z,101196
2016-04-18T01:14:31.525Z,101174
2016-04-18T01:14:44.118Z,101183
2016-04-18T01:14:56.464Z,101183
2016-04-18T01:15:08.933Z,101199
2016-04-18T01:15:21.308Z,101189
2016-04-18T01:15:33.886Z,101193
2016-04-18T01:15:46.417Z,101186
2016-04-18T01:15:58.733Z,101186
2016-04-18T01:16:11.217Z,101193
2016-04-18T01:16:23.764Z,101193
2016-04-18T01:16:36.123Z,101196
2016-04-18T01:16:48.548Z,101199
2016-04-18T01:17:01.142Z,101196
2016-04-18T01:17:13.501Z,101199
2016-04-18T01:17:25.830Z,101186
2016-04-18T01:17:38.392Z,101193
2016-04-18T01:17:50.816Z,101193
2016-04-18T01:18:03.316Z,101196
2016-04-18T01:18:15.644Z,101196
2016-04-18T01:18:28.035Z,101196
2016-04-18T01:18:40.566Z,101196
2016-04-18T01:18:52.914Z,101192
2016-04-18T01:19:05.257Z,101202
2016-04-18T01:19:17.804Z,101196
2016-04-18T01:19:30.195Z,101211
2016-04-18T01:19:42.539Z,101202
2016-04-18T01:19:55.072Z,101202
2016-04-18T01:20:07.541Z,101202
2016-04-18T01:20:19.853Z,101202
2016-04-18T01:20:32.353Z,101196
2016-04-18T01:20:44.713Z,101192
2016-04-18T01:20:57.277Z,101199
2016-04-18T01:21:09.715Z,101205
2016-04-18T01:21:22.043Z,101202
2016-04-18T01:21:34.621Z,101211
2016-04-18T01:21:47.105Z,101199
2016-04-18T01:21:59.390Z,101199
2016-04-18T01:22:11.937Z,101205
2016-04-18T01:22:24.453Z,101211
2016-04-18T01:22:36.812Z,101205
2016-04-18T01:36:47.506Z,101230
2016-04-18T01:36:59.821Z,101226
2016-04-18T01:37:12.305Z,101230
2016-04-18T01:37:24.884Z,101226
2016-04-18T01:37:37.212Z,101223
2016-04-18T01:37:49.636Z,101226
2016-04-18T01:38:02.198Z,101226
2016-04-18T01:38:14.573Z,101226
2016-04-18T01:38:26.932Z,101220
2016-04-18T01:38:39.479Z,101226
2016-04-18T01:38:51.935Z,101223
2016-04-18T01:39:06.498Z,101217
2016-04-18T01:39:19.029Z,101220
2016-04-18T01:39:31.451Z,101220
2016-04-18T01:39:43.982Z,101214
2016-04-18T01:39:56.375Z,101214
2016-04-18T01:40:08.766Z,101220
2016-04-18T01:40:21.391Z,101217
2016-04-18T01:40:33.812Z,101217
2016-04-18T01:40:46.141Z,101226
2016-04-18T01:40:58.707Z,101214
2016-04-18T01:41:11.145Z,101214
2016-04-18T01:41:23.457Z,101217
2016-04-18T01:41:36.004Z,101223
2016-04-18T01:41:48.504Z,101226
2016-04-18T01:42:00.834Z,101214
2016-04-18T01:42:13.287Z,101217
2016-04-18T01:42:25.803Z,101226
2016-04-18T01:42:38.100Z,101214
2016-04-18T01:42:50.556Z,101226
2016-04-18T01:43:03.150Z,101220
2016-04-18T01:43:15.509Z,101229
2016-04-18T01:43:27.884Z,101223
2016-04-18T01:43:40.431Z,101217
2016-04-18T01:43:52.840Z,101217
2016-04-18T01:44:05.153Z,101223
2016-04-18T01:44:17.715Z,101223
2016-04-18T01:44:30.184Z,101220
2016-04-18T01:44:42.621Z,101223
2016-04-18T01:44:54.968Z,101232
2016-04-18T01:45:07.327Z,101229
2016-04-18T01:45:19.874Z,101226
2016-04-18T01:45:32.296Z,101223
2016-04-18T01:45:44.593Z,101223
2016-04-18T01:45:57.142Z,101226
2016-04-18T01:46:09.642Z,101232
2016-04-18T01:46:21.970Z,101217
2016-04-18T01:46:34.517Z,101217
2016-04-18T01:46:47.033Z,101226
2016-04-18T01:46:59.411Z,101223
2016-04-18T01:47:11.895Z,101220
2016-04-18T01:47:24.301Z,101226
2016-04-18T01:47:36.864Z,101223
2016-04-18T01:47:49.334Z,101220
2016-04-18T01:48:01.678Z,101220
2016-04-18T01:48:14.194Z,101226
2016-04-18T01:48:26.694Z,101220
2016-04-18T01:48:39.022Z,101220
2016-04-18T01:48:51.494Z,101211
2016-04-18T01:49:04.009Z,101223
2016-04-18T01:49:16.306Z,101211
2016-04-18T01:49:28.744Z,101211
2016-04-18T01:49:41.322Z,101226
2016-04-18T01:49:53.683Z,101217
2016-04-18T01:50:06.183Z,101214
2016-04-18T01:50:18.496Z,101205
2016-04-18T01:50:31.652Z,101220
2016-04-18T01:50:44.183Z,101211
2016-04-18T01:50:56.499Z,101214
2016-04-18T01:51:08.905Z,101217
2016-04-18T01:51:21.436Z,101208
2016-04-18T01:51:33.811Z,101220
2016-04-18T01:51:46.139Z,101220
2016-04-18T01:51:58.705Z,101214
2016-04-18T01:52:11.095Z,101214
2016-04-18T01:52:23.517Z,101211
2016-04-18T01:52:36.095Z,101204
2016-04-18T01:52:48.517Z,101211
2016-04-18T01:53:01.067Z,101211
2016-04-18T01:53:13.458Z,101192
2016-04-18T01:53:25.817Z,101195
2016-04-18T02:07:30.073Z,101220
2016-04-18T02:07:42.573Z,101207
2016-04-18T02:07:54.889Z,101214
2016-04-18T02:08:07.358Z,101217
2016-04-18T02:08:19.889Z,101229
2016-04-18T02:08:32.233Z,101214
2016-04-18T02:08:44.718Z,101214
2016-04-18T02:08:57.032Z,101223
2016-04-18T02:09:10.391Z,101217
2016-04-18T02:09:24.188Z,101217
2016-04-18T02:09:36.579Z,101207
2016-04-18T02:09:49.063Z,101220
2016-04-18T02:10:01.628Z,101217
2016-04-18T02:10:13.940Z,101220
2016-04-18T02:10:26.347Z,101220
2016-04-18T02:10:38.878Z,101217
2016-04-18T02:10:51.209Z,101226
2016-04-18T02:11:03.584Z,101220
2016-04-18T02:11:16.037Z,101226
2016-04-18T02:11:28.475Z,101226
2016-04-18T02:11:41.021Z,101217
2016-04-18T02:11:53.321Z,101235
2016-04-18T02:12:05.743Z,101220
2016-04-18T02:12:18.290Z,101220
2016-04-18T02:12:30.634Z,101232
2016-04-18T02:12:42.978Z,101226
2016-04-18T02:12:55.543Z,101232
2016-04-18T02:13:07.981Z,101232
2016-04-18T02:13:20.309Z,101226
2016-04-18T02:13:32.871Z,101217
2016-04-18T02:13:45.324Z,101229
2016-04-18T02:13:57.779Z,101226
2016-04-18T02:14:10.139Z,101229
2016-04-18T02:14:22.545Z,101223
2016-04-18T02:14:35.108Z,101229
2016-04-18T02:14:47.514Z,101244
2016-04-18T02:14:59.861Z,101217
2016-04-18T02:15:12.423Z,101223
2016-04-18T02:15:24.845Z,101232
2016-04-18T02:15:37.189Z,101220
2016-04-18T02:15:49.707Z,101229
2016-04-18T02:16:02.223Z,101226
2016-04-18T02:16:14.535Z,101220
2016-04-18T02:16:26.989Z,101238
2016-04-18T02:16:39.551Z,101241
2016-04-18T02:16:51.834Z,101226
2016-04-18T02:17:04.225Z,101235
2016-04-18T02:17:16.787Z,101226
2016-04-18T02:17:29.178Z,101238
2016-04-18T02:17:41.537Z,101244
2016-04-18T02:17:54.150Z,101238
2016-04-18T02:18:06.556Z,101238
2016-04-18T02:18:18.900Z,101229
2016-04-18T02:18:31.462Z,101238
2016-04-18T02:18:43.915Z,101232
2016-04-18T02:18:56.247Z,101235
2016-04-18T02:19:08.731Z,101235
2016-04-18T02:19:21.059Z,101235
2016-04-18T02:19:33.622Z,101238
2016-04-18T02:19:46.028Z,101235
2016-04-18T02:19:58.359Z,101229
2016-04-18T02:20:10.906Z,101229
2016-04-18T02:20:23.359Z,101232
2016-04-18T02:20:35.671Z,101235
2016-04-18T02:20:48.171Z,101238
2016-04-18T02:21:00.705Z,101232
2016-04-18T02:21:13.064Z,101232
2016-04-18T02:21:25.548Z,101238
2016-04-18T02:21:38.095Z,101238
2016-04-18T02:21:50.473Z,101235
2016-04-18T02:22:02.911Z,101238
2016-04-18T02:22:15.270Z,101238
2016-04-18T02:22:27.786Z,101251
2016-04-18T02:22:40.301Z,101244
2016-04-18T02:22:52.600Z,101235
2016-04-18T02:23:05.069Z,101235
2016-04-18T02:23:17.600Z,101238
2016-04-18T02:23:29.913Z,101229
2016-04-18T02:23:42.319Z,101241
2016-04-18T02:23:54.916Z,101241
2016-04-18T02:24:07.900Z,101247
2016-04-18T02:38:20.047Z,101253
2016-04-18T02:38:32.437Z,101253
2016-04-18T02:38:44.843Z,101250
2016-04-18T02:38:57.347Z,101247
2016-04-18T02:39:10.504Z,101247
2016-04-18T02:39:25.160Z,101244
2016-04-18T02:39:37.738Z,101241
2016-04-18T02:39:50.176Z,101256
2016-04-18T02:40:02.475Z,101250
2016-04-18T02:40:14.960Z,101250
2016-04-18T02:40:27.491Z,101247
2016-04-18T02:40:39.929Z,101235
2016-04-18T02:40:52.352Z,101250
2016-04-18T02:41:04.696Z,101250
2016-04-18T02:41:17.290Z,101244
2016-04-18T02:41:29.743Z,101247
2016-04-18T02:41:42.087Z,101250
2016-04-18T02:41:54.574Z,101250
2016-04-18T02:42:07.137Z,101256
2016-04-18T02:42:19.449Z,101250
2016-04-18T02:42:32.059Z,101253
2016-04-18T02:42:44.590Z,101250
2016-04-18T02:42:56.904Z,101244
2016-04-18T02:43:09.326Z,101250
2016-04-18T02:43:21.748Z,101259
2016-04-18T02:43:34.311Z,101253
2016-04-18T02:43:46.826Z,101253
2016-04-18T02:43:59.125Z,101244
2016-04-18T02:44:11.609Z,101263
2016-04-18T02:44:24.172Z,101256
2016-04-18T02:44:36.469Z,101256
2016-04-18T02:44:48.906Z,101256
2016-04-18T02:45:01.456Z,101259
2016-04-18T02:45:13.831Z,101250
2016-04-18T02:45:26.206Z,101259
2016-04-18T02:45:38.769Z,101253
2016-04-18T02:45:51.178Z,101256
2016-04-18T02:46:03.694Z,101256
2016-04-18T02:46:16.006Z,101256
2016-04-18T02:46:28.397Z,101256
2016-04-18T02:46:41.006Z,101259
2016-04-18T02:46:53.400Z,101275
2016-04-18T02:47:05.775Z,101263
2016-04-18T02:47:18.368Z,101269
2016-04-18T02:47:30.790Z,101259
2016-04-18T02:47:43.103Z,101266
2016-04-18T02:47:55.652Z,101263
2016-04-18T02:48:08.105Z,101266
2016-04-18T02:48:20.449Z,101275
2016-04-18T02:48:32.980Z,101259
2016-04-18T02:48:45.339Z,101266
2016-04-18T02:48:57.889Z,101263
2016-04-18T02:49:10.311Z,101269
2016-04-18T02:49:22.639Z,101259
2016-04-18T02:49:35.233Z,101259
2016-04-18T02:49:47.670Z,101266
2016-04-18T02:50:00.017Z,101275
2016-04-18T02:50:12.533Z,101272
2016-04-18T02:50:25.048Z,101263
2016-04-18T02:50:37.361Z,101269
2016-04-18T02:50:49.830Z,101272
2016-04-18T02:51:02.395Z,101272
2016-04-18T02:51:14.754Z,101269
2016-04-18T02:51:27.176Z,101272
2016-04-18T02:51:39.723Z,101278
2016-04-18T02:51:52.100Z,101275
2016-04-18T02:52:04.444Z,101275
2016-04-18T02:52:17.022Z,101269
2016-04-18T02:52:29.413Z,101263
2016-04-18T02:52:41.756Z,101272
2016-04-18T02:52:54.291Z,101278
2016-04-18T02:53:06.744Z,101269
2016-04-18T02:53:19.041Z,101266
2016-04-18T02:53:31.572Z,101269
2016-04-18T02:53:44.103Z,101269
2016-04-18T02:53:56.591Z,101272
2016-04-18T02:54:09.106Z,101275
2016-04-18T02:54:22.825Z,101272
2016-04-18T02:54:35.387Z,101275
2016-04-18T02:54:47.809Z,101275
2016-04-18T02:55:00.172Z,101275
2016-04-18T03:09:07.585Z,101300
2016-04-18T03:09:20.975Z,101287
2016-04-18T03:09:34.007Z,101293
2016-04-18T03:09:46.335Z,101281
2016-04-18T03:09:58.790Z,101278
2016-04-18T03:10:11.259Z,101278
2016-04-18T03:10:23.805Z,101281
2016-04-18T03:10:36.102Z,101296
2016-04-18T03:10:48.493Z,101287
2016-04-18T03:11:01.043Z,101293
2016-04-18T03:11:13.418Z,101296
2016-04-18T03:11:25.762Z,101281
2016-04-18T03:11:38.371Z,101278
2016-04-18T03:11:50.777Z,101293
2016-04-18T03:12:03.123Z,101284
2016-04-18T03:12:15.701Z,101278
2016-04-18T03:12:28.154Z,101290
2016-04-18T03:12:40.623Z,101284
2016-04-18T03:12:52.954Z,101272
2016-04-18T03:13:05.298Z,101290
2016-04-18T03:13:17.845Z,101290
2016-04-18T03:13:30.235Z,101287
2016-04-18T03:13:42.579Z,101284
2016-04-18T03:13:55.129Z,101287
2016-04-18T03:14:07.582Z,101284
2016-04-18T03:14:19.926Z,101281
2016-04-18T03:14:32.457Z,101281
2016-04-18T03:14:44.957Z,101284
2016-04-18T03:14:57.241Z,101284
2016-04-18T03:15:09.694Z,101278
2016-04-18T03:15:22.319Z,101293
2016-04-18T03:15:34.632Z,101290
2016-04-18T03:15:47.038Z,101278
2016-04-18T03:15:59.603Z,101287
2016-04-18T03:16:11.978Z,101281
2016-04-18T03:16:24.337Z,101290
2016-04-18T03:16:36.915Z,101281
2016-04-18T03:16:49.306Z,101272
2016-04-18T03:17:01.746Z,101290
2016-04-18T03:17:14.293Z,101281
2016-04-18T03:17:26.762Z,101284
2016-04-18T03:17:39.090Z,101290
2016-04-18T03:17:51.609Z,101287
2016-04-18T03:18:03.999Z,101290
2016-04-18T03:18:16.577Z,101275
2016-04-18T03:18:28.999Z,101278
2016-04-18T03:18:41.359Z,101287
2016-04-18T03:18:53.923Z,101281
2016-04-18T03:19:06.408Z,101290
2016-04-18T03:19:18.736Z,101278
2016-04-18T03:19:31.251Z,101287
2016-04-18T03:19:43.814Z,101278
2016-04-18T03:19:56.161Z,101290
2016-04-18T03:20:08.598Z,101287
2016-04-18T03:20:21.192Z,101272
2016-04-18T03:20:33.598Z,101275
2016-04-18T03:20:46.098Z,101284
2016-04-18T03:20:58.428Z,101278
2016-04-18T03:21:10.944Z,101278
2016-04-18T03:21:23.459Z,101284
2016-04-18T03:21:35.756Z,101272
2016-04-18T03:21:48.897Z,101284
2016-04-18T03:22:01.447Z,101275
2016-04-18T03:22:13.775Z,101275
2016-04-18T03:22:26.166Z,101275
2016-04-18T03:22:38.759Z,101266
2016-04-18T03:22:51.072Z,101281
2016-04-18T03:23:03.419Z,101278
2016-04-18T03:23:15.872Z,101281
2016-04-18T03:23:28.325Z,101269
2016-04-18T03:23:40.872Z,101284
2016-04-18T03:23:53.187Z,101272
2016-04-18T03:24:05.578Z,101281
2016-04-18T03:24:18.734Z,101278
2016-04-18T03:24:31.218Z,101275
2016-04-18T03:24:44.328Z,101281
2016-04-18T03:24:56.877Z,101284
2016-04-18T03:25:09.267Z,101266
2016-04-18T03:25:21.580Z,101278
2016-04-18T03:25:34.127Z,101272
2016-04-18T03:25:46.580Z,101290
2016-04-18T03:39:57.433Z,101284
2016-04-18T03:40:09.933Z,101272
2016-04-18T03:40:22.449Z,101281
2016-04-18T03:40:35.574Z,101272
2016-04-18T03:40:47.980Z,101278
2016-04-18T03:41:01.779Z,101275
2016-04-18T03:41:15.623Z,101287
2016-04-18T03:41:29.935Z,101284
2016-04-18T03:41:42.498Z,101284
2016-04-18T03:41:54.923Z,101287
2016-04-18T03:42:07.391Z,101284
2016-04-18T03:42:19.813Z,101275
2016-04-18T03:42:32.235Z,101278
2016-04-18T03:42:44.829Z,101278
2016-04-18T03:42:57.316Z,101275
2016-04-18T03:43:09.644Z,101275
2016-04-18T03:43:22.269Z,101281
2016-04-18T03:43:34.769Z,101284
2016-04-18T03:43:47.113Z,101272
2016-04-18T03:43:59.631Z,101284
2016-04-18T03:44:12.146Z,101275
2016-04-18T03:44:24.412Z,101284
2016-04-18T03:44:36.865Z,101272
2016-04-18T03:44:49.193Z,101272
2016-04-18T03:45:01.743Z,101284
2016-04-18T03:45:14.259Z,101278
2016-04-18T03:45:26.603Z,101284
2016-04-18T03:45:39.165Z,101287
2016-04-18T03:45:51.698Z,101269
2016-04-18T03:46:04.042Z,101272
2016-04-18T03:46:16.558Z,101278
2016-04-18T03:46:29.151Z,101272
2016-04-18T03:46:41.433Z,101287
2016-04-18T03:46:53.905Z,101275
2016-04-18T03:47:06.437Z,101284
2016-04-18T03:47:18.843Z,101269
2016-04-18T03:47:31.390Z,101275
2016-04-18T03:47:43.718Z,101281
2016-04-18T03:47:56.329Z,101281
2016-04-18T03:48:08.923Z,101275
2016-04-18T03:48:21.314Z,101281
2016-04-18T03:48:33.767Z,101278
2016-04-18T03:48:46.345Z,101275
2016-04-18T03:48:58.770Z,101272
2016-04-18T03:49:11.192Z,101287
2016-04-18T03:49:23.754Z,101291
2016-04-18T03:49:36.254Z,101287
2016-04-18T03:49:48.660Z,101275
2016-04-18T03:50:01.272Z,101269
2016-04-18T03:50:13.725Z,101275
2016-04-18T03:50:26.319Z,101284
2016-04-18T03:50:38.725Z,101275
2016-04-18T03:50:51.162Z,101290
2016-04-18T03:51:03.728Z,101278
2016-04-18T03:51:16.228Z,101291
2016-04-18T03:51:28.572Z,101284
2016-04-18T03:51:41.150Z,101281
2016-04-18T03:51:53.684Z,101291
2016-04-18T03:52:06.075Z,101281
2016-04-18T03:52:18.590Z,101266
2016-04-18T03:52:31.200Z,101281
2016-04-18T03:52:43.668Z,101275
2016-04-18T03:52:56.124Z,101275
2016-04-18T03:53:08.545Z,101287
2016-04-18T03:53:21.155Z,101281
2016-04-18T03:53:33.655Z,101284
2016-04-18T03:53:46.014Z,101281
2016-04-18T03:53:58.548Z,101284
2016-04-18T03:54:11.111Z,101284
2016-04-18T03:54:23.548Z,101272
2016-04-18T03:54:37.002Z,101278
2016-04-18T03:54:50.470Z,101278
2016-04-18T03:55:02.800Z,101287
2016-04-18T03:55:15.254Z,101281
2016-04-18T03:55:27.691Z,101275
2016-04-18T03:55:40.238Z,101284
2016-04-18T03:55:52.772Z,101278
2016-04-18T03:56:05.116Z,101287
2016-04-18T03:56:17.632Z,101275
2016-04-18T03:56:30.241Z,101287
2016-04-18T04:10:42.576Z,101281
2016-04-18T04:10:54.923Z,101297
2016-04-18T04:11:07.516Z,101290
2016-04-18T04:11:20.016Z,101281
2016-04-18T04:11:32.516Z,101284
2016-04-18T04:11:44.985Z,101300
2016-04-18T04:11:57.394Z,101287
2016-04-18T04:12:09.988Z,101284
2016-04-18T04:12:22.410Z,101281
2016-04-18T04:12:34.785Z,101294
2016-04-18T04:12:47.379Z,101281
2016-04-18T04:12:59.865Z,101290
2016-04-18T04:13:12.240Z,101300
2016-04-18T04:13:24.834Z,101291
2016-04-18T04:13:37.381Z,101284
2016-04-18T04:13:49.724Z,101287
2016-04-18T04:14:02.368Z,101287
2016-04-18T04:14:15.368Z,101291
2016-04-18T04:14:29.368Z,101297
2016-04-18T04:14:43.227Z,101297
2016-04-18T04:14:57.918Z,101297
2016-04-18T04:15:12.043Z,101297
2016-04-18T04:15:26.168Z,101291
2016-04-18T04:15:40.309Z,101294
2016-04-18T04:15:53.639Z,101303
2016-04-18T04:16:06.795Z,101306
2016-04-18T04:16:20.967Z,101300
2016-04-18T04:16:35.092Z,101303
2016-04-18T04:16:48.217Z,101303
2016-04-18T04:17:00.798Z,101303
2016-04-18T04:17:13.220Z,101300
2016-04-18T04:17:25.939Z,101311
2016-04-18T04:17:38.407Z,101297
2016-04-18T04:17:50.767Z,101300
2016-04-18T04:18:03.363Z,101306
2016-04-18T04:18:15.832Z,101281
2016-04-18T04:18:28.192Z,101303
2016-04-18T04:18:40.754Z,101306
2016-04-18T04:18:53.334Z,101306
2016-04-18T04:19:05.662Z,101294
2016-04-18T04:19:18.147Z,101294
2016-04-18T04:19:30.709Z,101294
2016-04-18T04:19:43.225Z,101300
2016-04-18T04:19:55.728Z,101297
2016-04-18T04:20:08.072Z,101300
2016-04-18T04:20:20.603Z,101294
2016-04-18T04:20:33.181Z,101303
2016-04-18T04:20:45.525Z,101287
2016-04-18T04:20:58.027Z,101300
2016-04-18T04:21:10.636Z,101294
2016-04-18T04:21:23.011Z,101294
2016-04-18T04:21:35.495Z,101300
2016-04-18T04:21:48.136Z,101297
2016-04-18T04:22:00.531Z,101300
2016-04-18T04:22:12.937Z,101287
2016-04-18T04:22:25.406Z,101303
2016-04-18T04:22:37.906Z,101297
2016-04-18T04:22:50.515Z,101297
2016-04-18T04:23:02.861Z,101294
2016-04-18T04:23:15.330Z,101287
2016-04-18T04:23:27.876Z,101284
2016-04-18T04:23:40.267Z,101291
2016-04-18T04:23:52.661Z,101294
2016-04-18T04:24:05.270Z,101303
2016-04-18T04:24:17.723Z,101294
2016-04-18T04:24:30.364Z,101297
2016-04-18T04:24:44.426Z,101294
2016-04-18T04:24:56.945Z,101297
2016-04-18T04:25:09.476Z,101297
2016-04-18T04:25:21.867Z,101294
2016-04-18T04:25:34.257Z,101297
2016-04-18T04:25:46.851Z,101311
2016-04-18T04:25:59.416Z,101287
2016-04-18T04:26:11.775Z,101303
2016-04-18T04:26:24.353Z,101294
2016-04-18T04:26:36.869Z,101297
2016-04-18T04:26:49.213Z,101303
2016-04-18T04:27:01.778Z,101300
2016-04-18T04:27:14.325Z,101287
2016-04-18T04:27:26.731Z,101300
2016-04-18T04:27:39.262Z,101297
2016-04-18T04:41:44.879Z,101311
2016-04-18T04:41:57.349Z,101314
2016-04-18T04:42:09.943Z,101311
2016-04-18T04:42:22.349Z,101317
2016-04-18T04:42:34.787Z,101317
2016-04-18T04:42:47.381Z,101324